Time;durP1;ratioP1;P1;durP2;ratioP2;P2;SDS_P1;SDS_P2;PMS_P1;PMS_P2;Temp;Humidity;BMP_temperature;BMP_pressure;BME280_temperature;BME280_humidity;BME280_pressure;Samples;Min_cycle;Max_cycle;Signal;HPM_P1;HPM_P2
2020/08/18 00:00:01;;;;;;;0.7;0.5;;;;;;;;;;;;;
2020/08/18 00:02:33;;;;;;;0.7;0.4;;;;;;;;;;;;;
2020/08/18 00:04:58;;;;;;;1;0.5;;;;;;;;;;;;;
2020/08/18 00:07:23;;;;;;;1.1;0.5;;;;;;;;;;;;;
2020/08/18 00:09:50;;;;;;;0.3;0.3;;;;;;;;;;;;;
2020/08/18 00:12:15;;;;;;;3.2;0.6;;;;;;;;;;;;;
2020/08/18 00:14:40;;;;;;;1;0.5;;;;;;;;;;;;;
2020/08/18 00:17:05;;;;;;;0.6;0.5;;;;;;;;;;;;;
2020/08/18 00:19:30;;;;;;;0.3;0.3;;;;;;;;;;;;;
2020/08/18 00:21:55;;;;;;;0.3;0.3;;;;;;;;;;;;;
2020/08/18 00:24:20;;;;;;;0.4;0.3;;;;;;;;;;;;;
2020/08/18 00:26:46;;;;;;;0.6;0.5;;;;;;;;;;;;;
2020/08/18 00:29:11;;;;;;;0.5;0.4;;;;;;;;;;;;;
2020/08/18 00:31:36;;;;;;;0.6;0.5;;;;;;;;;;;;;
2020/08/18 00:34:01;;;;;;;1.8;0.6;;;;;;;;;;;;;
2020/08/18 00:36:26;;;;;;;1.4;0.7;;;;;;;;;;;;;
2020/08/18 00:38:51;;;;;;;0.5;0.4;;;;;;;;;;;;;
2020/08/18 00:41:20;;;;;;;0.3;0.3;;;;;;;;;;;;;
2020/08/18 00:43:45;;;;;;;0.5;0.4;;;;;;;;;;;;;
2020/08/18 00:46:10;;;;;;;1.4;0.5;;;;;;;;;;;;;
2020/08/18 00:48:35;;;;;;;1.9;0.6;;;;;;;;;;;;;
2020/08/18 00:51:03;;;;;;;1;0.7;;;;;;;;;;;;;
2020/08/18 00:53:28;;;;;;;0.7;0.6;;;;;;;;;;;;;
2020/08/18 00:55:53;;;;;;;1.4;0.8;;;;;;;;;;;;;
2020/08/18 00:58:18;;;;;;;0.4;0.4;;;;;;;;;;;;;
2020/08/18 01:00:44;;;;;;;1.2;0.4;;;;;;;;;;;;;
2020/08/18 01:03:09;;;;;;;0.5;0.3;;;;;;;;;;;;;
2020/08/18 01:05:34;;;;;;;0.6;0.4;;;;;;;;;;;;;
2020/08/18 01:07:59;;;;;;;1;0.6;;;;;;;;;;;;;
2020/08/18 01:10:24;;;;;;;0.6;0.4;;;;;;;;;;;;;
2020/08/18 01:12:50;;;;;;;1.6;0.7;;;;;;;;;;;;;
2020/08/18 01:15:18;;;;;;;0.6;0.4;;;;;;;;;;;;;
2020/08/18 01:17:43;;;;;;;0.6;0.4;;;;;;;;;;;;;
2020/08/18 01:20:08;;;;;;;0.6;0.5;;;;;;;;;;;;;
2020/08/18 01:22:33;;;;;;;0.5;0.3;;;;;;;;;;;;;
2020/08/18 01:24:58;;;;;;;0.6;0.4;;;;;;;;;;;;;
2020/08/18 01:27:23;;;;;;;0.9;0.4;;;;;;;;;;;;;
2020/08/18 01:29:48;;;;;;;1.5;0.9;;;;;;;;;;;;;
2020/08/18 01:32:14;;;;;;;0.8;0.6;;;;;;;;;;;;;
2020/08/18 01:34:41;;;;;;;0.4;0.4;;;;;;;;;;;;;
2020/08/18 01:37:06;;;;;;;1.2;0.6;;;;;;;;;;;;;
2020/08/18 01:39:31;;;;;;;1.7;0.3;;;;;;;;;;;;;
2020/08/18 01:41:56;;;;;;;0.3;0.3;;;;;;;;;;;;;
2020/08/18 01:44:22;;;;;;;0.7;0.5;;;;;;;;;;;;;
2020/08/18 01:46:47;;;;;;;0.2;0.2;;;;;;;;;;;;;
2020/08/18 01:49:12;;;;;;;1.1;0.5;;;;;;;;;;;;;
2020/08/18 01:51:37;;;;;;;0.2;0.2;;;;;;;;;;;;;
2020/08/18 01:54:02;;;;;;;0.5;0.3;;;;;;;;;;;;;
2020/08/18 01:56:28;;;;;;;0.5;0.3;;;;;;;;;;;;;
2020/08/18 01:58:53;;;;;;;0.7;0.3;;;;;;;;;;;;;
2020/08/18 02:01:20;;;;;;;0.4;0.4;;;;;;;;;;;;;
2020/08/18 02:03:45;;;;;;;0.4;0.4;;;;;;;;;;;;;
2020/08/18 02:06:12;;;;;;;0.4;0.3;;;;;;;;;;;;;
2020/08/18 02:08:37;;;;;;;0.8;0.6;;;;;;;;;;;;;
2020/08/18 02:11:02;;;;;;;0.8;0.5;;;;;;;;;;;;;
2020/08/18 02:13:29;;;;;;;0.6;0.5;;;;;;;;;;;;;
2020/08/18 02:15:54;;;;;;;0.8;0.7;;;;;;;;;;;;;
2020/08/18 02:18:21;;;;;;;1.6;0.5;;;;;;;;;;;;;
2020/08/18 02:20:46;;;;;;;0.7;0.4;;;;;;;;;;;;;
2020/08/18 02:23:12;;;;;;;0.5;0.4;;;;;;;;;;;;;
2020/08/18 02:25:37;;;;;;;0.4;0.2;;;;;;;;;;;;;
2020/08/18 02:28:02;;;;;;;1.5;0.7;;;;;;;;;;;;;
2020/08/18 02:30:31;;;;;;;0.7;0.6;;;;;;;;;;;;;
2020/08/18 02:32:56;;;;;;;0.5;0.3;;;;;;;;;;;;;
2020/08/18 02:35:21;;;;;;;0.6;0.5;;;;;;;;;;;;;
2020/08/18 02:37:46;;;;;;;0.6;0.4;;;;;;;;;;;;;
2020/08/18 02:40:11;;;;;;;0.9;0.3;;;;;;;;;;;;;
2020/08/18 02:42:37;;;;;;;2;0.7;;;;;;;;;;;;;
2020/08/18 02:45:02;;;;;;;0.9;0.7;;;;;;;;;;;;;
2020/08/18 02:47:27;;;;;;;0.7;0.3;;;;;;;;;;;;;
2020/08/18 02:49:53;;;;;;;1.6;0.5;;;;;;;;;;;;;
2020/08/18 02:52:18;;;;;;;0.4;0.2;;;;;;;;;;;;;
2020/08/18 02:54:44;;;;;;;0.3;0.3;;;;;;;;;;;;;
2020/08/18 02:57:09;;;;;;;0.5;0.5;;;;;;;;;;;;;
2020/08/18 02:59:34;;;;;;;1.2;0.3;;;;;;;;;;;;;
2020/08/18 03:02:01;;;;;;;0.5;0.4;;;;;;;;;;;;;
2020/08/18 03:04:26;;;;;;;0.5;0.4;;;;;;;;;;;;;
2020/08/18 03:06:53;;;;;;;3.7;0.4;;;;;;;;;;;;;
2020/08/18 03:09:18;;;;;;;0.4;0.3;;;;;;;;;;;;;
2020/08/18 03:11:43;;;;;;;0.4;0.2;;;;;;;;;;;;;
2020/08/18 03:14:09;;;;;;;0.6;0.5;;;;;;;;;;;;;
2020/08/18 03:16:35;;;;;;;0.4;0.3;;;;;;;;;;;;;
2020/08/18 03:18:59;;;;;;;0.8;0.4;;;;;;;;;;;;;
2020/08/18 03:21:24;;;;;;;0.4;0.4;;;;;;;;;;;;;
2020/08/18 03:23:51;;;;;;;0.8;0.5;;;;;;;;;;;;;
2020/08/18 03:26:16;;;;;;;0.5;0.3;;;;;;;;;;;;;
2020/08/18 03:28:42;;;;;;;1.4;0.3;;;;;;;;;;;;;
2020/08/18 03:31:07;;;;;;;0.7;0.3;;;;;;;;;;;;;
2020/08/18 03:33:34;;;;;;;0.6;0.5;;;;;;;;;;;;;
2020/08/18 03:35:58;;;;;;;0.7;0.3;;;;;;;;;;;;;
2020/08/18 03:38:25;;;;;;;0.8;0.5;;;;;;;;;;;;;
2020/08/18 03:40:50;;;;;;;0.7;0.5;;;;;;;;;;;;;
2020/08/18 03:43:15;;;;;;;0.4;0.3;;;;;;;;;;;;;
2020/08/18 03:45:40;;;;;;;0.5;0.3;;;;;;;;;;;;;
2020/08/18 03:48:07;;;;;;;0.3;0.3;;;;;;;;;;;;;
2020/08/18 03:50:32;;;;;;;0.4;0.4;;;;;;;;;;;;;
2020/08/18 03:52:57;;;;;;;0.4;0.4;;;;;;;;;;;;;
2020/08/18 03:55:23;;;;;;;0.5;0.3;;;;;;;;;;;;;
2020/08/18 03:57:48;;;;;;;0.5;0.3;;;;;;;;;;;;;
2020/08/18 04:02:31;;;;;;;1.8;0.7;;;;;;;17.39;89.07715;935.463;;;;
2020/08/18 04:04:57;;;;;;;2.4;0.4;;;;;;;17.24;89.91699;935.3536;;;;
2020/08/18 04:07:24;;;;;;;1.1;0.7;;;;;;;17.22;90.07422;935.312;;;;
2020/08/18 04:09:51;;;;;;;0.5;0.3;;;;;;;17.32;89.37695;935.3478;;;;
2020/08/18 04:12:16;;;;;;;0.7;0.5;;;;;;;17.31;89.26855;935.3408;;;;
2020/08/18 04:14:42;;;;;;;0.4;0.3;;;;;;;17.22;89.66797;935.3828;;;;
2020/08/18 04:17:07;;;;;;;1;0.6;;;;;;;17.18;89.64941;935.3811;;;;
2020/08/18 04:19:32;;;;;;;0.4;0.3;;;;;;;17.14;89.6416;935.3995;;;;
2020/08/18 04:21:58;;;;;;;0.3;0.3;;;;;;;17.14;89.65332;935.443;;;;
2020/08/18 04:24:23;;;;;;;0.9;0.5;;;;;;;17.12;89.74219;935.478;;;;
2020/08/18 04:26:48;;;;;;;1.3;0.5;;;;;;;17.11;89.87793;935.4678;;;;
2020/08/18 04:29:15;;;;;;;0.3;0.3;;;;;;;17.15;89.93359;935.5555;;;;
2020/08/18 04:31:41;;;;;;;0.5;0.4;;;;;;;17.27;89.34277;935.5847;;;;
2020/08/18 04:34:06;;;;;;;0.6;0.4;;;;;;;17.3;89.07031;935.5414;;;;
2020/08/18 04:36:31;;;;;;;0.9;0.4;;;;;;;17.38;88.85449;935.5084;;;;
2020/08/18 04:38:56;;;;;;;0.2;0.2;;;;;;;17.21;89.68945;935.5784;;;;
2020/08/18 04:41:21;;;;;;;0.5;0.3;;;;;;;17.2;90.44336;935.573;;;;
2020/08/18 04:43:49;;;;;;;0.5;0.4;;;;;;;17.07;90.47266;935.5892;;;;
2020/08/18 04:46:18;;;;;;;0.4;0.3;;;;;;;16.91;91.26172;935.6178;;;;
2020/08/18 04:48:43;;;;;;;0.5;0.4;;;;;;;17.02;91.2168;935.5837;;;;
2020/08/18 04:51:08;;;;;;;3.4;0.7;;;;;;;17.23;90.40234;935.6104;;;;
2020/08/18 04:53:34;;;;;;;0.5;0.5;;;;;;;17.19;90.23047;935.5739;;;;
2020/08/18 04:55:59;;;;;;;0.9;0.7;;;;;;;17.27;90.14258;935.5711;;;;
2020/08/18 04:58:24;;;;;;;0.5;0.4;;;;;;;17.21;90.06055;935.5471;;;;
2020/08/18 05:00:51;;;;;;;0.9;0.6;;;;;;;17.06;90.74902;935.4833;;;;
2020/08/18 05:03:16;;;;;;;0.6;0.4;;;;;;;17.04;90.11816;935.5022;;;;
2020/08/18 05:05:41;;;;;;;0.3;0.2;;;;;;;17.12;89.71875;935.5616;;;;
2020/08/18 05:08:06;;;;;;;0.6;0.5;;;;;;;17.29;89.09082;935.5843;;;;
2020/08/18 05:10:35;;;;;;;0.6;0.6;;;;;;;17.53;88.38477;935.6295;;;;
2020/08/18 05:13:00;;;;;;;1.3;0.5;;;;;;;17.62;87.86914;935.5856;;;;
2020/08/18 05:15:30;;;;;;;0.4;0.3;;;;;;;17.63;87.56152;935.5992;;;;
2020/08/18 05:17:55;;;;;;;0.5;0.5;;;;;;;17.7;87.07324;935.566;;;;
2020/08/18 05:20:20;;;;;;;2.4;0.5;;;;;;;17.6;86.90234;935.5845;;;;
2020/08/18 05:22:45;;;;;;;0.4;0.3;;;;;;;17.53;87.17969;935.6222;;;;
2020/08/18 05:25:10;;;;;;;0.5;0.5;;;;;;;17.32;88.25;935.7028;;;;
2020/08/18 05:27:35;;;;;;;1.8;0.9;;;;;;;17.29;88.87109;935.6969;;;;
2020/08/18 05:30:00;;;;;;;0.6;0.5;;;;;;;17.39;88.70508;935.6989;;;;
2020/08/18 05:32:31;;;;;;;0.4;0.4;;;;;;;17.43;88.64551;935.7305;;;;
2020/08/18 05:34:57;;;;;;;5.2;0.7;;;;;;;17.57;89.4502;935.6664;;;;
2020/08/18 05:37:23;;;;;;;1.8;0.6;;;;;;;17.91;88.30176;935.7095;;;;
2020/08/18 05:39:50;;;;;;;0.9;0.5;;;;;;;18.16;86.85254;935.7001;;;;
2020/08/18 05:42:14;;;;;;;0.8;0.5;;;;;;;18.48;85.72852;935.6736;;;;
2020/08/18 05:44:40;;;;;;;0.7;0.6;;;;;;;18.73;83.83496;935.7315;;;;
2020/08/18 05:47:05;;;;;;;0.9;0.5;;;;;;;18.87;83.42871;935.7297;;;;
2020/08/18 05:49:30;;;;;;;0.7;0.5;;;;;;;19.06;82.97656;935.8395;;;;
2020/08/18 05:51:55;;;;;;;1.5;0.8;;;;;;;18.93;83.74512;935.8386;;;;
2020/08/18 05:54:21;;;;;;;0.6;0.4;;;;;;;19.09;82.92578;935.9064;;;;
2020/08/18 05:56:46;;;;;;;3.5;1;;;;;;;19.34;81.59863;935.8772;;;;
2020/08/18 05:59:11;;;;;;;1.1;0.6;;;;;;;19.46;80.46484;935.9306;;;;
2020/08/18 06:01:37;;;;;;;4;0.9;;;;;;;19.13;82.54785;935.9222;;;;
2020/08/18 06:04:02;;;;;;;0.9;0.7;;;;;;;18.87;83.96582;935.8483;;;;
2020/08/18 06:06:28;;;;;;;0.8;0.6;;;;;;;18.86;84.40625;935.8945;;;;
2020/08/18 06:08:54;;;;;;;1.4;0.6;;;;;;;18.86;82.39258;935.9205;;;;
2020/08/18 06:11:19;;;;;;;0.8;0.5;;;;;;;18.86;82.49707;935.9487;;;;
2020/08/18 06:13:45;;;;;;;3.8;0.4;;;;;;;18.89;82.54883;935.9397;;;;
2020/08/18 06:16:10;;;;;;;1.1;0.5;;;;;;;19.02;83.53906;935.9324;;;;
2020/08/18 06:18:35;;;;;;;0.4;0.3;;;;;;;19.13;83.27148;935.9423;;;;
2020/08/18 06:21:00;;;;;;;1.6;0.7;;;;;;;19.25;82.60645;935.9467;;;;
2020/08/18 06:23:25;;;;;;;3.7;0.8;;;;;;;19.37;81.90625;935.9562;;;;
2020/08/18 06:25:51;;;;;;;1;0.6;;;;;;;19.48;80.2832;935.9688;;;;
2020/08/18 06:28:16;;;;;;;5.5;0.7;;;;;;;19.48;79.78223;935.9647;;;;
2020/08/18 06:30:41;;;;;;;2.7;0.6;;;;;;;19.33;79.00879;935.913;;;;
2020/08/18 06:33:06;;;;;;;0.6;0.4;;;;;;;19.06;79.82227;935.9009;;;;
2020/08/18 06:35:31;;;;;;;0.7;0.4;;;;;;;18.97;79.33984;935.9869;;;;
2020/08/18 06:37:56;;;;;;;0.8;0.3;;;;;;;19.09;80.71191;936.022;;;;
2020/08/18 06:40:23;;;;;;;16.3;0.9;;;;;;;19.15;82.55176;935.9864;;;;
2020/08/18 06:42:48;;;;;;;1.5;0.8;;;;;;;19.32;80.00879;935.9626;;;;
2020/08/18 06:45:16;;;;;;;4.7;1.9;;;;;;;19.33;78.71777;936.0042;;;;
2020/08/18 06:47:41;;;;;;;1;0.7;;;;;;;19.41;79.37402;935.9445;;;;
2020/08/18 06:50:08;;;;;;;0.9;0.6;;;;;;;19.67;79.31543;935.8775;;;;
2020/08/18 06:52:34;;;;;;;1.4;0.9;;;;;;;20.05;78.27637;935.9069;;;;
2020/08/18 06:54:59;;;;;;;0.9;0.6;;;;;;;20.55;77.83691;935.944;;;;
2020/08/18 06:57:25;;;;;;;0.3;0.3;;;;;;;21.28;74.08105;935.8209;;;;
2020/08/18 06:59:49;;;;;;;2.1;1;;;;;;;21.42;71.42285;935.9163;;;;
2020/08/18 07:02:14;;;;;;;1.1;0.6;;;;;;;21.26;71.375;935.8773;;;;
2020/08/18 07:04:41;;;;;;;0.4;0.4;;;;;;;20.83;74.12207;935.8898;;;;
2020/08/18 07:07:07;;;;;;;0.5;0.4;;;;;;;20.58;73.65918;935.9243;;;;
2020/08/18 07:09:34;;;;;;;2.5;0.7;;;;;;;20.26;75.73145;935.9009;;;;
2020/08/18 07:11:59;;;;;;;0.2;0.2;;;;;;;20.16;77.20801;935.9481;;;;
2020/08/18 07:14:24;;;;;;;0.8;0.5;;;;;;;19.82;77.70996;935.9805;;;;
2020/08/18 07:16:50;;;;;;;3.1;0.9;;;;;;;19.79;77.95996;935.9871;;;;
2020/08/18 07:19:15;;;;;;;0.9;0.5;;;;;;;19.65;78.58887;936.0002;;;;
2020/08/18 07:21:43;;;;;;;0.9;0.7;;;;;;;19.62;79.55176;935.9514;;;;
2020/08/18 07:24:08;;;;;;;1.2;0.6;;;;;;;19.7;79.15625;935.9567;;;;
2020/08/18 07:26:33;;;;;;;1.3;0.6;;;;;;;19.68;78.43066;936.0331;;;;
2020/08/18 07:28:58;;;;;;;3.1;0.6;;;;;;;19.79;79.21973;936.0485;;;;
2020/08/18 07:31:23;;;;;;;0.8;0.4;;;;;;;19.82;78.58301;936.0485;;;;
2020/08/18 07:33:49;;;;;;;0.4;0.3;;;;;;;19.87;78.09082;936.0303;;;;
2020/08/18 07:36:14;;;;;;;0.4;0.4;;;;;;;19.83;80.05371;936.0469;;;;
2020/08/18 07:38:39;;;;;;;1;0.3;;;;;;;19.82;77.69629;936.0137;;;;
2020/08/18 07:41:07;;;;;;;1.1;0.8;;;;;;;19.94;77.30859;936.0064;;;;
2020/08/18 07:43:32;;;;;;;9.4;1.3;;;;;;;20.07;77.86914;935.9808;;;;
2020/08/18 07:45:57;;;;;;;1.6;0.6;;;;;;;20.14;77.96191;935.9586;;;;
2020/08/18 07:48:22;;;;;;;3.1;0.5;;;;;;;20.11;79.25488;935.9869;;;;
2020/08/18 07:50:47;;;;;;;0.5;0.2;;;;;;;20.08;77.25391;935.9642;;;;
2020/08/18 07:53:13;;;;;;;3.4;0.3;;;;;;;20.1;76.91699;935.976;;;;
2020/08/18 07:55:42;;;;;;;1.1;0.6;;;;;;;20.24;77.03613;936.0098;;;;
2020/08/18 07:58:07;;;;;;;0.4;0.4;;;;;;;20.27;76.36328;936.021;;;;
2020/08/18 08:00:42;;;;;;;0.2;0.1;;;;;;;20.22;75.93359;936.0117;;;;
2020/08/18 08:03:07;;;;;;;0.2;0.2;;;;;;;20.26;74.93945;936.0665;;;;
2020/08/18 08:05:34;;;;;;;0.6;0.4;;;;;;;20.43;75.50195;936.0748;;;;
2020/08/18 08:07:59;;;;;;;3;1.6;;;;;;;20.49;75.52637;936.0728;;;;
2020/08/18 08:10:28;;;;;;;5.9;2.8;;;;;;;20.47;75.125;936.1536;;;;
2020/08/18 08:12:53;;;;;;;2;1.4;;;;;;;20.41;74.08789;936.1131;;;;
2020/08/18 08:15:26;;;;;;;0.4;0.3;;;;;;;20.51;74.08105;936.2048;;;;
2020/08/18 08:17:51;;;;;;;2.1;0.9;;;;;;;20.67;74.5293;936.2347;;;;
2020/08/18 08:20:21;;;;;;;1.6;0.7;;;;;;;20.44;74.50098;936.2304;;;;
2020/08/18 08:22:46;;;;;;;4;0.8;;;;;;;20.36;75.67969;936.2324;;;;
2020/08/18 08:25:16;;;;;;;1.3;0.7;;;;;;;20.28;74.77832;936.3538;;;;
2020/08/18 08:27:41;;;;;;;0.2;0.2;;;;;;;20.6;75.58984;936.2902;;;;
2020/08/18 08:30:06;;;;;;;0.1;0.1;;;;;;;20.67;73.48926;936.4177;;;;
2020/08/18 08:32:35;;;;;;;0.4;0.4;;;;;;;20.4;75.41699;936.4617;;;;
2020/08/18 08:35:06;;;;;;;0.2;0.2;;;;;;;20.36;74.71094;936.4741;;;;
2020/08/18 08:37:31;;;;;;;0.3;0.3;;;;;;;20.63;76.93945;936.5678;;;;
2020/08/18 08:39:57;;;;;;;0.2;0.2;;;;;;;20.47;77.74121;936.6026;;;;
2020/08/18 08:42:24;;;;;;;0.2;0.2;;;;;;;20.64;77.77148;936.6281;;;;
2020/08/18 08:44:49;;;;;;;0.3;0.2;;;;;;;20.66;74.74805;936.6705;;;;
2020/08/18 08:47:14;;;;;;;0.3;0.3;;;;;;;20.64;76.12305;936.709;;;;
2020/08/18 08:49:39;;;;;;;0.2;0.2;;;;;;;20.65;75.50684;936.7296;;;;
2020/08/18 08:52:04;;;;;;;0.4;0.3;;;;;;;20.63;74.65137;936.8322;;;;
2020/08/18 08:54:33;;;;;;;0.2;0.1;;;;;;;20.44;72.84277;936.7661;;;;
2020/08/18 08:56:58;;;;;;;0.1;0.1;;;;;;;20.44;73.53125;936.8608;;;;
2020/08/18 08:59:23;;;;;;;0.8;0.3;;;;;;;20.08;74.79004;936.844;;;;
2020/08/18 09:01:48;;;;;;;0.4;0.4;;;;;;;20;75.52441;936.8127;;;;
2020/08/18 09:04:15;;;;;;;0.3;0.3;;;;;;;19.96;75.86719;936.8602;;;;
2020/08/18 09:06:41;;;;;;;0.5;0.2;;;;;;;19.67;77.35645;936.8333;;;;
2020/08/18 09:09:07;;;;;;;0.7;0.4;;;;;;;19.62;77.18359;936.8901;;;;
2020/08/18 09:11:32;;;;;;;0.2;0.1;;;;;;;19.54;76.70313;936.8722;;;;
2020/08/18 09:14:04;;;;;;;0.8;0.3;;;;;;;19.17;78.00098;936.8795;;;;
2020/08/18 09:16:29;;;;;;;1.5;0.6;;;;;;;18.87;79.88086;936.8512;;;;
2020/08/18 09:18:54;;;;;;;0.2;0.2;;;;;;;19.1;79.5625;936.9392;;;;
2020/08/18 09:21:21;;;;;;;0.3;0.2;;;;;;;19.22;77.46387;936.9096;;;;
2020/08/18 09:23:48;;;;;;;0.2;0.1;;;;;;;19.05;78.2832;936.955;;;;
2020/08/18 09:26:13;;;;;;;0.2;0.2;;;;;;;18.94;79.40527;937.0165;;;;
2020/08/18 09:28:38;;;;;;;0.2;0.2;;;;;;;19.02;80.46582;937.0437;;;;
2020/08/18 09:31:05;;;;;;;0.8;0.3;;;;;;;18.86;81.05469;937.0388;;;;
2020/08/18 09:33:30;;;;;;;0.6;0.3;;;;;;;18.77;81.43359;937.0453;;;;
2020/08/18 09:35:55;;;;;;;0.5;0.3;;;;;;;18.83;80.7002;937.058;;;;
2020/08/18 09:38:20;;;;;;;0.7;0.3;;;;;;;18.81;79.94043;937.125;;;;
2020/08/18 09:40:46;;;;;;;0.3;0.2;;;;;;;18.86;79.40137;937.1202;;;;
2020/08/18 09:43:11;;;;;;;0.6;0.5;;;;;;;19.06;78.63379;937.0687;;;;
2020/08/18 09:45:36;;;;;;;0.6;0.4;;;;;;;19.25;78.05273;937.1044;;;;
2020/08/18 09:48:01;;;;;;;0.3;0.2;;;;;;;19.02;78.09082;937.1453;;;;
2020/08/18 09:50:26;;;;;;;0.4;0.2;;;;;;;19.05;78.33984;937.2385;;;;
2020/08/18 09:52:51;;;;;;;0.1;0.1;;;;;;;18.74;79.68164;937.2349;;;;
2020/08/18 09:55:17;;;;;;;0.4;0.3;;;;;;;18.89;78.90625;937.2453;;;;
2020/08/18 09:57:42;;;;;;;0.1;0.1;;;;;;;18.73;79.55371;937.2729;;;;
2020/08/18 10:00:13;;;;;;;0.2;0.1;;;;;;;18.66;78.63281;937.2528;;;;
2020/08/18 10:02:38;;;;;;;0.2;0.1;;;;;;;18.68;79.46387;937.2378;;;;
2020/08/18 10:05:03;;;;;;;0.4;0.3;;;;;;;18.43;81.06738;937.2978;;;;
2020/08/18 10:07:28;;;;;;;3.5;0.2;;;;;;;18.6;80.40137;937.228;;;;
2020/08/18 10:09:54;;;;;;;0.2;0.2;;;;;;;18.67;80.70508;937.1624;;;;
2020/08/18 10:12:19;;;;;;;0.5;0.3;;;;;;;18.42;82.34473;937.1801;;;;
2020/08/18 10:14:44;;;;;;;0.5;0.2;;;;;;;18.47;82.91504;937.1678;;;;
2020/08/18 10:17:09;;;;;;;0.6;0.4;;;;;;;18.64;83.21289;937.1403;;;;
2020/08/18 10:19:34;;;;;;;0.8;0.4;;;;;;;18.67;84.43945;937.1124;;;;
2020/08/18 10:21:59;;;;;;;1.1;0.5;;;;;;;18.82;84.73633;937.0854;;;;
2020/08/18 10:24:25;;;;;;;0.5;0.4;;;;;;;18.85;83.3457;937.0492;;;;
2020/08/18 10:26:50;;;;;;;0.1;0.1;;;;;;;19.25;82.89648;937.0076;;;;
2020/08/18 10:29:15;;;;;;;0.9;0.4;;;;;;;19.46;79.97559;936.9362;;;;
2020/08/18 10:31:40;;;;;;;0.2;0.2;;;;;;;19.72;77.20117;936.8739;;;;
2020/08/18 10:34:05;;;;;;;0.1;0.1;;;;;;;19.95;77.43848;936.7634;;;;
2020/08/18 10:36:35;;;;;;;0.2;0.1;;;;;;;20.23;76.8125;936.7662;;;;
2020/08/18 10:39:00;;;;;;;0.1;0.1;;;;;;;20.45;75.55469;936.8044;;;;
2020/08/18 10:41:26;;;;;;;0.4;0.1;;;;;;;20.48;75.03223;936.7722;;;;
2020/08/18 10:43:51;;;;;;;0.9;0.3;;;;;;;20.63;74.03027;936.7498;;;;
2020/08/18 10:46:20;;;;;;;0.5;0.2;;;;;;;20.79;71.83691;936.7042;;;;
2020/08/18 10:48:45;;;;;;;0.8;0.2;;;;;;;20.78;72.30273;936.6906;;;;
2020/08/18 10:51:12;;;;;;;2.1;0.1;;;;;;;20.76;72.36816;936.6072;;;;
2020/08/18 10:53:38;;;;;;;0.4;0.3;;;;;;;21.07;73.70508;936.6017;;;;
2020/08/18 10:56:03;;;;;;;0.2;0.2;;;;;;;21.02;68.92773;936.5981;;;;
2020/08/18 10:58:28;;;;;;;1;0.3;;;;;;;21.48;71.65723;936.4943;;;;
2020/08/18 11:01:01;;;;;;;0.3;0.2;;;;;;;22.09;68.42676;936.5023;;;;
2020/08/18 11:03:26;;;;;;;0.6;0.3;;;;;;;22.53;66.81543;936.4551;;;;
2020/08/18 11:05:58;;;;;;;1.5;0.5;;;;;;;22.77;68.45898;936.3686;;;;
2020/08/18 11:08:23;;;;;;;0.7;0.2;;;;;;;22.85;67.37891;936.3053;;;;
2020/08/18 11:10:48;;;;;;;1.1;0.4;;;;;;;23.01;67.35645;936.3028;;;;
2020/08/18 11:13:13;;;;;;;0.2;0.2;;;;;;;23.15;66.32031;936.2825;;;;
2020/08/18 11:15:39;;;;;;;1.1;0.2;;;;;;;22.9;60.76465;936.2559;;;;
2020/08/18 11:18:04;;;;;;;0;0;;;;;;;22.89;61.23145;936.2086;;;;
2020/08/18 11:20:29;;;;;;;0.2;0.1;;;;;;;22.35;63.71582;936.1641;;;;
2020/08/18 11:22:54;;;;;;;0.2;0.2;;;;;;;22.49;63.54688;936.149;;;;
2020/08/18 11:25:19;;;;;;;0.2;0.1;;;;;;;22.84;64.92383;936.122;;;;
2020/08/18 11:27:44;;;;;;;0.4;0.2;;;;;;;23.08;67.8252;936.0742;;;;
2020/08/18 11:30:10;;;;;;;0.1;0.1;;;;;;;23.62;61.80273;936.0371;;;;
2020/08/18 11:32:35;;;;;;;0;0;;;;;;;23.74;61.59668;935.9741;;;;
2020/08/18 11:35:00;;;;;;;0.1;0.1;;;;;;;23.8;56.09668;935.9625;;;;
2020/08/18 11:37:25;;;;;;;0.2;0.2;;;;;;;23.89;59.36816;935.8734;;;;
2020/08/18 11:39:50;;;;;;;0.1;0.1;;;;;;;24.32;55.91406;935.8657;;;;
2020/08/18 11:42:15;;;;;;;0;0;;;;;;;24.82;56.34375;935.8444;;;;
2020/08/18 11:44:40;;;;;;;0.2;0.2;;;;;;;25.67;54.1582;935.778;;;;
2020/08/18 11:47:05;;;;;;;0;0;;;;;;;26.7;49.42578;935.7015;;;;
2020/08/18 11:49:30;;;;;;;0.1;0.1;;;;;;;27.37;43.9375;935.6425;;;;
2020/08/18 11:51:56;;;;;;;3.9;0.2;;;;;;;27.17;45.42285;935.5932;;;;
2020/08/18 11:54:21;;;;;;;0.9;0.3;;;;;;;27.33;47.38477;935.5125;;;;
2020/08/18 11:56:46;;;;;;;0.1;0;;;;;;;28.04;44.47754;935.4941;;;;
2020/08/18 11:59:11;;;;;;;0.1;0.1;;;;;;;28.72;45.98438;935.4302;;;;
2020/08/18 12:01:38;;;;;;;0;0;;;;;;;28.66;41.57715;935.4369;;;;
2020/08/18 12:04:08;;;;;;;0.1;0.1;;;;;;;29.33;44.59277;935.4428;;;;
2020/08/18 12:06:34;;;;;;;0.2;0.2;;;;;;;29.64;41.91797;935.3836;;;;
2020/08/18 12:08:59;;;;;;;0.1;0.1;;;;;;;29.81;41.7666;935.3837;;;;
2020/08/18 12:11:24;;;;;;;0.2;0.2;;;;;;;30.63;37.55273;935.3764;;;;
2020/08/18 12:13:49;;;;;;;0.3;0.2;;;;;;;30.81;38.0459;935.3616;;;;
2020/08/18 12:16:14;;;;;;;0.3;0.2;;;;;;;31.48;36.22266;935.2849;;;;
2020/08/18 12:18:39;;;;;;;0;0;;;;;;;31.68;37.08887;935.2744;;;;
2020/08/18 12:21:04;;;;;;;0.1;0.1;;;;;;;31.45;35.61035;935.2281;;;;
2020/08/18 12:23:30;;;;;;;0;0;;;;;;;31.16;35.77832;935.1323;;;;
2020/08/18 12:25:56;;;;;;;3.5;0.2;;;;;;;30.61;36.90527;935.1091;;;;
2020/08/18 12:28:21;;;;;;;0.3;0.2;;;;;;;30.95;38.21289;935.0578;;;;
2020/08/18 12:30:47;;;;;;;0;0;;;;;;;31.03;37.9209;934.9804;;;;
2020/08/18 12:33:12;;;;;;;0;0;;;;;;;31.18;36.04297;934.9655;;;;
2020/08/18 12:35:37;;;;;;;0.1;0.1;;;;;;;31.26;34.61426;934.9826;;;;
2020/08/18 12:38:02;;;;;;;0.1;0.1;;;;;;;31.1;34.64941;934.9242;;;;
2020/08/18 12:40:28;;;;;;;0.2;0.2;;;;;;;31.27;37.0918;934.9052;;;;
2020/08/18 12:42:53;;;;;;;0.1;0.1;;;;;;;30.7;34.7627;934.8377;;;;
2020/08/18 12:45:18;;;;;;;0.2;0;;;;;;;30.11;36.2207;934.8108;;;;
2020/08/18 12:47:43;;;;;;;0.2;0.1;;;;;;;29.59;36.90625;934.8173;;;;
2020/08/18 12:50:18;;;;;;;0.1;0.1;;;;;;;28.89;37.4082;934.7758;;;;
2020/08/18 12:52:44;;;;;;;0.7;0.2;;;;;;;28.67;37.36621;934.6809;;;;
2020/08/18 12:55:09;;;;;;;0.8;0.2;;;;;;;28.62;39.09863;934.6542;;;;
2020/08/18 12:57:35;;;;;;;0.3;0.2;;;;;;;28.36;38.31641;934.5776;;;;
2020/08/18 13:00:00;;;;;;;0.1;0;;;;;;;28.12;39.13867;934.5016;;;;
2020/08/18 13:02:25;;;;;;;0.1;0.1;;;;;;;27.76;43.5127;934.4766;;;;
2020/08/18 13:04:51;;;;;;;0.3;0.2;;;;;;;27.4;46.51465;934.4705;;;;
2020/08/18 13:07:16;;;;;;;11.5;0.5;;;;;;;27.36;43.66309;934.3759;;;;
2020/08/18 13:09:41;;;;;;;0;0;;;;;;;27.72;43.80469;934.3378;;;;
2020/08/18 13:12:06;;;;;;;0.7;0.2;;;;;;;27.65;42.68164;934.2838;;;;
2020/08/18 13:14:31;;;;;;;1.9;0.3;;;;;;;27.65;40.91406;934.1375;;;;
2020/08/18 13:16:57;;;;;;;0.1;0.1;;;;;;;27.59;40.41016;934.2147;;;;
2020/08/18 13:19:22;;;;;;;0.4;0.1;;;;;;;27.55;43.87109;934.1835;;;;
2020/08/18 13:21:47;;;;;;;0.1;0.1;;;;;;;27.21;41.05176;934.2009;;;;
2020/08/18 13:24:12;;;;;;;0.1;0.1;;;;;;;27.55;41.11816;934.1917;;;;
2020/08/18 13:26:37;;;;;;;0.5;0.2;;;;;;;27.7;37.68945;934.1502;;;;
2020/08/18 13:29:02;;;;;;;0;0;;;;;;;27.48;40.25781;934.2001;;;;
2020/08/18 13:31:31;;;;;;;0.1;0;;;;;;;27.55;41.26074;934.1459;;;;
2020/08/18 13:33:56;;;;;;;0.1;0.1;;;;;;;27.39;40.57031;934.0983;;;;
2020/08/18 13:36:24;;;;;;;0.2;0.1;;;;;;;27.35;44.44434;934.1044;;;;
2020/08/18 13:38:49;;;;;;;2.9;0.2;;;;;;;27.52;46.21777;934.1462;;;;
2020/08/18 13:41:15;;;;;;;2.3;0.3;;;;;;;27.2;45.79297;934.1459;;;;
2020/08/18 13:43:40;;;;;;;0.1;0.1;;;;;;;26.62;47.12109;934.0889;;;;
2020/08/18 13:46:05;;;;;;;0.2;0.1;;;;;;;26.6;47.9707;934.0471;;;;
2020/08/18 13:48:30;;;;;;;0.2;0.2;;;;;;;26.86;48.50781;934.0942;;;;
2020/08/18 13:50:58;;;;;;;0.3;0.2;;;;;;;26.79;48.72559;934.0302;;;;
2020/08/18 13:53:23;;;;;;;0.1;0.1;;;;;;;27.15;46.98633;934.033;;;;
2020/08/18 13:55:48;;;;;;;0.9;0.1;;;;;;;26.83;44.3584;934.0026;;;;
2020/08/18 13:58:16;;;;;;;0.4;0.1;;;;;;;26.59;46.31152;934.0025;;;;
2020/08/18 14:00:45;;;;;;;0.4;0.2;;;;;;;26.08;45.84473;934.0105;;;;
2020/08/18 14:03:10;;;;;;;0.6;0.2;;;;;;;26.1;48.05957;933.9319;;;;
2020/08/18 14:05:35;;;;;;;0;0;;;;;;;26.56;48.29688;933.9263;;;;
2020/08/18 14:08:00;;;;;;;1.6;0.1;;;;;;;26.82;49.86621;933.8169;;;;
2020/08/18 14:10:26;;;;;;;0.5;0.3;;;;;;;27.19;48.8291;933.8686;;;;
2020/08/18 14:12:53;;;;;;;0;0;;;;;;;27.52;49.35059;933.8416;;;;
2020/08/18 14:15:27;;;;;;;0;0;;;;;;;27.81;49.07324;933.8075;;;;
2020/08/18 14:17:52;;;;;;;0.1;0.1;;;;;;;27.97;45.43262;933.7236;;;;
2020/08/18 14:20:19;;;;;;;0.1;0.1;;;;;;;27.91;44.40527;933.7394;;;;
2020/08/18 14:22:44;;;;;;;3.8;0.2;;;;;;;27.52;45.5293;933.7061;;;;
2020/08/18 14:25:09;;;;;;;0.2;0.2;;;;;;;27.12;44.72949;933.6448;;;;
2020/08/18 14:27:34;;;;;;;1;0.6;;;;;;;26.87;43.43652;933.6876;;;;
2020/08/18 14:29:59;;;;;;;0;0;;;;;;;26.48;44.52441;933.663;;;;
2020/08/18 14:32:24;;;;;;;0.3;0.3;;;;;;;26.02;45.03516;933.6839;;;;
2020/08/18 14:34:49;;;;;;;0.4;0.4;;;;;;;25.99;48.30762;933.6984;;;;
2020/08/18 14:37:15;;;;;;;0.1;0.1;;;;;;;25.77;54.66602;933.6716;;;;
2020/08/18 14:39:40;;;;;;;0.6;0.2;;;;;;;25.25;55.57129;933.6401;;;;
2020/08/18 14:42:05;;;;;;;0;0;;;;;;;25.16;56.44434;933.6807;;;;
2020/08/18 14:44:30;;;;;;;2.3;0.8;;;;;;;25.03;59.0127;933.6696;;;;
2020/08/18 14:46:55;;;;;;;0.1;0.1;;;;;;;25.04;57.19629;933.6541;;;;
2020/08/18 14:49:20;;;;;;;2.3;0.3;;;;;;;24.88;58.03809;933.7047;;;;
2020/08/18 14:51:45;;;;;;;0.2;0.2;;;;;;;24.73;55.53027;933.6555;;;;
2020/08/18 14:54:11;;;;;;;0.5;0.3;;;;;;;24.79;54.72363;933.6948;;;;
2020/08/18 14:56:36;;;;;;;2.9;0.6;;;;;;;24.77;53.67188;933.7194;;;;
2020/08/18 14:59:01;;;;;;;0.2;0.2;;;;;;;24.77;52.83398;933.692;;;;
2020/08/18 15:01:29;;;;;;;0;0;;;;;;;24.95;53.29297;933.706;;;;
2020/08/18 15:03:55;;;;;;;0.3;0.1;;;;;;;24.97;56.93945;933.7606;;;;
2020/08/18 15:06:23;;;;;;;2.2;0.2;;;;;;;24.72;55.21094;933.7576;;;;
2020/08/18 15:08:48;;;;;;;0.5;0.1;;;;;;;24.53;54.36328;933.7014;;;;
2020/08/18 15:11:13;;;;;;;2.5;0.4;;;;;;;24.39;54.12207;933.7428;;;;
2020/08/18 15:13:44;;;;;;;0.1;0.1;;;;;;;24.47;55.56836;933.7419;;;;
2020/08/18 15:16:09;;;;;;;0.1;0;;;;;;;24.54;54.30371;933.8345;;;;
2020/08/18 15:18:34;;;;;;;0.1;0.1;;;;;;;24.09;56.57031;933.823;;;;
2020/08/18 15:20:59;;;;;;;0.5;0.2;;;;;;;24.32;56.20898;933.8441;;;;
2020/08/18 15:23:24;;;;;;;0;0;;;;;;;24.47;55.27344;933.8181;;;;
2020/08/18 15:25:52;;;;;;;0.1;0.1;;;;;;;24.57;55.68652;933.847;;;;
2020/08/18 15:28:17;;;;;;;0;0;;;;;;;24.29;56.57031;933.8722;;;;
2020/08/18 15:30:45;;;;;;;0.2;0.1;;;;;;;24.1;54.95801;933.8917;;;;